Terminal Aerodrome Forecast
Issued by NWS Jackson, MS

Home | Current Version | Previous Version | Text Only | Print | Product List | Glossary On
Versions: 1 2 3 4 5 6 7 8 9 10 11 12 13
564
FTUS44 KJAN 261721
TAFHBG
TAF
KHBG 261721Z 2618/2718 32004KT P6SM SKC
     FM262100 34008KT P6SM VCTS BKN040CB BKN100
     FM270000 35004KT P6SM BKN025 BKN250
     FM271000 01003KT 4SM BR OVC007
     FM271400 02005KT P6SM BKN015 BKN100=

USA.gov is the U.S. government's official web portal to all federal, state and local government web resources and services.